Time;durP1;ratioP1;P1;durP2;ratioP2;P2;SDS_P1;SDS_P2;PMS_P1;PMS_P2;Temp;Humidity;BMP_temperature;BMP_pressure;BME280_temperature;BME280_humidity;BME280_pressure;Samples;Min_cycle;Max_cycle;Signal;HPM_P1;HPM_P2
2021/03/04 00:01:22;;;;;;;238.30;112.07;;;4.90;99.90;;;;;;5074051;28;20048;-73
2021/03/04 00:03:48;;;;;;;215.95;106.03;;;4.90;99.90;;;;;;5074487;28;20024;-73
2021/03/04 00:06:13;;;;;;;223.57;108.55;;;4.90;99.90;;;;;;5074408;28;20055;-73
2021/03/04 00:08:39;;;;;;;214.38;104.28;;;4.90;99.90;;;;;;5073175;28;20108;-73
2021/03/04 00:11:05;;;;;;;231.80;108.45;;;4.90;99.90;;;;;;5074291;28;20028;-72
2021/03/04 00:13:30;;;;;;;209.73;103.05;;;4.80;99.90;;;;;;5074553;28;20025;-73
2021/03/04 00:15:56;;;;;;;214.32;102.70;;;4.80;99.90;;;;;;5072684;28;20393;-73
2021/03/04 00:18:22;;;;;;;211.75;103.70;;;4.80;99.90;;;;;;5074437;28;20461;-72
2021/03/04 00:20:49;;;;;;;206.10;99.97;;;4.80;99.90;;;;;;5074315;28;20031;-73
2021/03/04 00:23:14;;;;;;;204.80;97.50;;;4.70;99.90;;;;;;5074425;28;20017;-72
2021/03/04 00:25:40;;;;;;;215.90;104.75;;;4.70;99.90;;;;;;5074345;28;20055;-72
2021/03/04 00:28:06;;;;;;;204.57;101.05;;;4.80;99.90;;;;;;5074381;28;20025;-73
2021/03/04 00:30:32;;;;;;;204.10;98.45;;;4.80;99.90;;;;;;5072369;28;20496;-72
2021/03/04 00:32:58;;;;;;;222.65;101.20;;;4.70;99.90;;;;;;5072384;28;20107;-73
2021/03/04 00:35:24;;;;;;;219.57;102.85;;;4.70;99.90;;;;;;5072836;28;20107;-73
2021/03/04 00:37:50;;;;;;;213.23;103.07;;;4.60;99.90;;;;;;5074148;28;20025;-73
2021/03/04 00:40:19;;;;;;;216.75;103.63;;;4.60;99.90;;;;;;5073965;28;20028;-72
2021/03/04 00:42:45;;;;;;;213.25;101.28;;;4.60;99.90;;;;;;5074173;28;20131;-73
2021/03/04 00:45:13;;;;;;;199.95;95.07;;;4.60;99.90;;;;;;5073597;28;20506;-72
2021/03/04 00:47:39;;;;;;;190.57;95.60;;;4.50;99.90;;;;;;5073830;28;20078;-73
2021/03/04 00:50:06;;;;;;;192.70;94.40;;;4.50;99.90;;;;;;5072618;28;20037;-72
2021/03/04 00:52:32;;;;;;;208.73;100.13;;;4.40;99.90;;;;;;5074034;28;20504;-73
2021/03/04 00:54:58;;;;;;;213.77;103.18;;;4.40;99.90;;;;;;5072750;28;20025;-73
2021/03/04 00:57:23;;;;;;;223.00;104.65;;;4.40;99.90;;;;;;5072545;28;20020;-72
2021/03/04 00:59:49;;;;;;;246.52;110.05;;;4.40;99.90;;;;;;5073747;28;20037;-73
2021/03/04 01:02:15;;;;;;;242.13;115.65;;;4.40;99.90;;;;;;5073300;28;20107;-72
2021/03/04 01:04:41;;;;;;;235.00;110.53;;;4.40;99.90;;;;;;5073669;28;20052;-72
2021/03/04 01:07:06;;;;;;;230.00;108.78;;;4.50;99.90;;;;;;5073903;28;20029;-73
2021/03/04 01:09:32;;;;;;;218.75;105.25;;;4.40;99.90;;;;;;5072096;28;20027;-73
2021/03/04 01:11:57;;;;;;;225.77;105.55;;;4.30;99.90;;;;;;5073822;28;20025;-72
2021/03/04 01:14:24;;;;;;;217.85;102.20;;;4.30;99.90;;;;;;5073527;28;20025;-72
2021/03/04 01:16:50;;;;;;;209.07;99.60;;;4.30;99.90;;;;;;5073505;28;20449;-72
2021/03/04 01:19:15;;;;;;;208.52;100.25;;;4.20;99.90;;;;;;5073753;28;20056;-72
2021/03/04 01:21:41;;;;;;;224.85;107.90;;;4.20;99.90;;;;;;5073711;28;20024;-72
2021/03/04 01:24:07;;;;;;;227.98;109.82;;;4.20;99.90;;;;;;5073713;28;20031;-72
2021/03/04 01:26:33;;;;;;;237.52;108.93;;;4.20;99.90;;;;;;5073197;28;20017;-72
2021/03/04 01:28:59;;;;;;;237.80;109.43;;;4.30;99.90;;;;;;5073777;28;20043;-72
2021/03/04 01:31:24;;;;;;;225.57;104.35;;;4.30;99.90;;;;;;5073721;28;20450;-72
2021/03/04 01:33:50;;;;;;;232.10;107.15;;;4.40;99.90;;;;;;5072207;28;20024;-72
2021/03/04 01:36:16;;;;;;;226.63;104.90;;;4.40;99.90;;;;;;5073702;28;20056;-72
2021/03/04 01:38:41;;;;;;;242.57;108.80;;;4.40;99.90;;;;;;5073606;28;20346;-72
2021/03/04 01:41:07;;;;;;;225.82;105.97;;;4.40;99.90;;;;;;5073289;28;20385;-72
2021/03/04 01:43:32;;;;;;;225.02;104.22;;;4.40;99.90;;;;;;5073135;28;20393;-72
2021/03/04 01:45:58;;;;;;;214.52;102.75;;;4.50;99.90;;;;;;5077415;28;20442;-72
2021/03/04 01:48:24;;;;;;;221.05;104.35;;;4.50;99.90;;;;;;5076841;28;20458;-72
2021/03/04 01:50:50;;;;;;;219.93;104.15;;;4.50;99.90;;;;;;5077318;28;20031;-72
2021/03/04 01:53:15;;;;;;;235.50;107.38;;;4.50;99.90;;;;;;5077346;28;20470;-72
2021/03/04 01:55:42;;;;;;;225.30;106.03;;;4.50;99.90;;;;;;5077284;28;20052;-72
2021/03/04 01:58:08;;;;;;;247.25;108.45;;;4.60;99.90;;;;;;5076922;28;20114;-72
2021/03/04 02:00:33;;;;;;;239.70;107.18;;;4.70;99.90;;;;;;5076626;28;20100;-72
2021/03/04 02:02:59;;;;;;;237.27;106.15;;;4.70;99.90;;;;;;5075495;28;20021;-72
2021/03/04 02:05:24;;;;;;;219.77;102.55;;;4.80;99.90;;;;;;5076519;28;20017;-72
2021/03/04 02:08:17;;;;;;;235.05;104.18;;;4.80;99.90;;;;;;5077003;28;20066;-72
2021/03/04 02:10:47;;;;;;;233.60;104.45;;;4.80;99.90;;;;;;5076741;28;20017;-72
2021/03/04 02:13:29;;;;;;;209.55;93.10;;;4.90;99.90;;;;;;5076948;28;20135;-72
2021/03/04 02:16:12;;;;;;;209.35;92.00;;;4.90;99.90;;;;;;5076912;28;20129;-72
2021/03/04 02:18:45;;;;;;;198.20;93.20;;;4.90;99.90;;;;;;5076624;28;20031;-72
2021/03/04 02:21:44;;;;;;;188.95;87.32;;;4.90;99.90;;;;;;5076774;28;20038;-72
2021/03/04 02:24:50;;;;;;;192.35;87.07;;;4.90;99.90;;;;;;5076085;28;20033;-72
2021/03/04 02:27:16;;;;;;;196.32;84.82;;;4.80;99.90;;;;;;5076013;28;20020;-72
2021/03/04 02:29:49;;;;;;;176.90;81.00;;;4.70;99.90;;;;;;5076661;28;20017;-72
2021/03/04 02:32:23;;;;;;;185.57;81.85;;;4.60;99.90;;;;;;5075192;28;20036;-72
2021/03/04 02:34:54;;;;;;;182.73;77.25;;;4.60;99.90;;;;;;5076295;28;20028;-72
2021/03/04 02:37:24;;;;;;;177.93;76.95;;;4.60;99.90;;;;;;5076475;28;20052;-72
2021/03/04 02:39:54;;;;;;;171.90;74.32;;;4.50;99.90;;;;;;5076477;28;20016;-72
2021/03/04 02:42:22;;;;;;;167.10;74.00;;;4.50;99.90;;;;;;5074634;28;20435;-72
2021/03/04 02:44:51;;;;;;;171.20;75.35;;;4.40;99.90;;;;;;5075191;28;20021;-72
2021/03/04 02:47:18;;;;;;;170.93;73.38;;;4.40;99.90;;;;;;5076076;28;20374;-72
2021/03/04 02:49:45;;;;;;;173.68;73.15;;;4.30;99.90;;;;;;5076283;28;20579;-72
2021/03/04 02:52:12;;;;;;;176.13;73.70;;;4.30;99.90;;;;;;5075995;28;20034;-72
2021/03/04 02:54:39;;;;;;;165.45;72.70;;;4.30;99.90;;;;;;5075569;28;20021;-72
2021/03/04 02:57:07;;;;;;;166.60;70.50;;;4.30;99.90;;;;;;5076201;28;20050;-71
2021/03/04 02:59:33;;;;;;;168.25;71.22;;;4.30;99.90;;;;;;5075849;28;20531;-72
2021/03/04 03:02:00;;;;;;;174.98;72.97;;;4.30;99.90;;;;;;5075327;28;20057;-71
2021/03/04 03:04:26;;;;;;;166.20;71.85;;;4.30;99.90;;;;;;5075501;28;20025;-72
2021/03/04 03:06:53;;;;;;;157.70;70.22;;;4.30;99.90;;;;;;5075832;28;20108;-72
2021/03/04 03:09:21;;;;;;;161.48;71.50;;;4.30;99.90;;;;;;5075935;28;20024;-72
2021/03/04 03:11:46;;;;;;;160.93;71.70;;;4.30;99.90;;;;;;5074244;28;20107;-72
2021/03/04 03:14:13;;;;;;;161.13;71.43;;;4.30;99.90;;;;;;5075538;28;20414;-72
2021/03/04 03:16:39;;;;;;;153.80;67.32;;;4.30;99.90;;;;;;5075240;28;20083;-72
2021/03/04 03:19:05;;;;;;;155.55;70.30;;;4.30;99.90;;;;;;5074189;28;20024;-72
2021/03/04 03:21:31;;;;;;;161.30;68.40;;;4.20;99.90;;;;;;5075620;28;20471;-72
2021/03/04 03:23:56;;;;;;;169.65;70.63;;;4.20;99.90;;;;;;5075601;28;20215;-72
2021/03/04 03:26:22;;;;;;;166.85;68.15;;;4.30;99.90;;;;;;5075550;28;20142;-72
2021/03/04 03:28:47;;;;;;;158.50;67.82;;;4.30;99.90;;;;;;5075221;28;20021;-72
2021/03/04 03:31:17;;;;;;;172.65;74.13;;;4.10;99.90;;;;;;5074519;28;20101;-72
2021/03/04 03:33:42;;;;;;;179.65;71.95;;;4.10;99.90;;;;;;5074038;28;20031;-72
2021/03/04 03:36:08;;;;;;;181.45;71.00;;;4.10;99.90;;;;;;5073904;28;20447;-72
2021/03/04 03:38:36;;;;;;;172.82;74.10;;;4.10;99.90;;;;;;5073905;28;20046;-72
2021/03/04 03:41:03;;;;;;;183.43;73.45;;;4.10;99.90;;;;;;5075221;28;20031;-73
2021/03/04 03:43:28;;;;;;;198.70;77.47;;;4.10;99.90;;;;;;5075204;28;20013;-72
2021/03/04 03:45:55;;;;;;;191.38;75.70;;;4.10;99.90;;;;;;5074900;28;20031;-72
2021/03/04 03:48:23;;;;;;;204.10;78.53;;;4.10;99.90;;;;;;5075120;28;20021;-72
2021/03/04 03:51:17;;;;;;;197.93;79.47;;;4.10;99.90;;;;;;5075051;28;20108;-72
2021/03/04 03:53:46;;;;;;;209.25;78.88;;;4.10;99.90;;;;;;5074764;28;20031;-72
2021/03/04 03:56:13;;;;;;;198.70;77.43;;;4.10;99.90;;;;;;5074731;28;20111;-72
2021/03/04 03:58:39;;;;;;;211.05;79.55;;;4.20;99.90;;;;;;5074923;28;20052;-72
2021/03/04 04:01:13;;;;;;;223.70;81.22;;;4.10;99.90;;;;;;5074363;28;20107;-72
2021/03/04 04:03:39;;;;;;;213.50;81.22;;;4.10;99.90;;;;;;5074587;28;20099;-72
2021/03/04 04:06:04;;;;;;;235.93;83.68;;;4.10;99.90;;;;;;5074091;28;20481;-72
2021/03/04 04:08:32;;;;;;;244.68;87.18;;;4.10;99.90;;;;;;5074730;28;20021;-72
2021/03/04 04:11:04;;;;;;;240.75;82.15;;;4.20;99.90;;;;;;5074083;28;20020;-72
2021/03/04 04:13:29;;;;;;;234.88;82.18;;;4.20;99.90;;;;;;5073219;28;20028;-72
2021/03/04 04:15:55;;;;;;;260.05;88.65;;;4.10;99.90;;;;;;5073617;28;20523;-72
2021/03/04 04:18:23;;;;;;;255.95;89.68;;;4.10;99.90;;;;;;5074296;28;20533;-72
2021/03/04 04:20:49;;;;;;;269.65;87.28;;;4.10;99.90;;;;;;5073886;28;20028;-72
2021/03/04 04:23:16;;;;;;;277.98;90.70;;;4.10;99.90;;;;;;5074472;28;20012;-72
2021/03/04 04:25:48;;;;;;;248.30;85.38;;;4.00;99.90;;;;;;5056113;28;20020;-72
2021/03/04 04:28:13;;;;;;;263.17;90.53;;;4.00;99.90;;;;;;5074438;28;20016;-72
2021/03/04 04:30:39;;;;;;;284.48;90.63;;;4.00;99.90;;;;;;5072878;28;20030;-72
2021/03/04 04:33:04;;;;;;;258.42;87.65;;;4.10;99.90;;;;;;5074046;28;20027;-72
2021/03/04 04:35:30;;;;;;;285.25;90.35;;;4.10;99.90;;;;;;5074310;28;20343;-72
2021/03/04 04:37:55;;;;;;;348.25;92.60;;;4.00;99.90;;;;;;5074008;28;20082;-72
2021/03/04 04:40:21;;;;;;;355.63;99.10;;;4.00;99.90;;;;;;5074004;28;20028;-72
2021/03/04 04:42:46;;;;;;;376.10;98.55;;;4.00;99.90;;;;;;5072337;28;20036;-72
2021/03/04 04:45:12;;;;;;;324.60;97.15;;;4.00;99.90;;;;;;5074100;28;20017;-72
2021/03/04 04:47:38;;;;;;;368.27;97.80;;;3.90;99.90;;;;;;5073883;28;20033;-71
2021/03/04 04:50:05;;;;;;;356.08;99.15;;;3.90;99.90;;;;;;5074134;28;20451;-71
2021/03/04 04:52:30;;;;;;;409.70;100.72;;;3.90;99.90;;;;;;5074112;28;20027;-71
2021/03/04 04:54:57;;;;;;;383.05;100.75;;;3.90;99.90;;;;;;5074071;28;20111;-72
2021/03/04 04:57:23;;;;;;;413.88;102.07;;;3.90;99.90;;;;;;5073498;28;20124;-72
2021/03/04 04:59:49;;;;;;;371.23;103.68;;;3.90;99.90;;;;;;5073846;28;20481;-72
2021/03/04 05:02:14;;;;;;;307.90;93.35;;;4.00;99.90;;;;;;5073984;28;20454;-72
2021/03/04 05:04:43;;;;;;;331.27;95.90;;;3.90;99.90;;;;;;5073904;28;20035;-72
2021/03/04 05:07:09;;;;;;;289.55;89.90;;;3.90;99.90;;;;;;5073375;28;20036;-72
2021/03/04 05:09:51;;;;;;;250.13;82.95;;;3.90;99.90;;;;;;5073900;28;20021;-72
2021/03/04 05:12:38;;;;;;;242.77;79.85;;;4.00;99.90;;;;;;5072471;28;20120;-72
2021/03/04 05:15:07;;;;;;;234.02;76.38;;;4.00;99.90;;;;;;5072948;28;20112;-72
2021/03/04 05:17:33;;;;;;;219.45;75.82;;;4.00;99.90;;;;;;5075321;28;20052;-72
2021/03/04 05:19:58;;;;;;;191.75;69.43;;;4.00;99.90;;;;;;5076431;28;20028;-72
2021/03/04 05:22:24;;;;;;;175.52;62.50;;;4.00;99.90;;;;;;5077313;28;20024;-72
2021/03/04 05:24:49;;;;;;;187.40;64.78;;;4.00;99.90;;;;;;5076197;28;20485;-72
2021/03/04 05:27:15;;;;;;;176.65;63.05;;;4.00;99.90;;;;;;5076009;28;20020;-72
2021/03/04 05:29:40;;;;;;;190.45;64.28;;;4.00;99.90;;;;;;5077768;28;20469;-72
2021/03/04 05:32:06;;;;;;;167.23;61.95;;;4.10;99.90;;;;;;5075972;28;20032;-72
2021/03/04 05:34:32;;;;;;;152.95;58.85;;;4.10;99.90;;;;;;5077406;28;20093;-72
2021/03/04 05:36:58;;;;;;;161.48;61.13;;;4.10;99.90;;;;;;5077617;28;20517;-72
2021/03/04 05:39:23;;;;;;;168.75;61.10;;;4.10;99.90;;;;;;5076474;28;20127;-72
2021/03/04 05:41:50;;;;;;;169.18;60.22;;;4.10;99.90;;;;;;5077455;28;20416;-71
2021/03/04 05:44:16;;;;;;;169.18;62.97;;;4.00;99.90;;;;;;5075970;28;20070;-72
2021/03/04 05:46:46;;;;;;;159.25;58.53;;;4.10;99.90;;;;;;5077436;28;20429;-72
2021/03/04 05:49:15;;;;;;;177.15;61.88;;;4.10;99.90;;;;;;5075964;28;20020;-72
2021/03/04 05:51:45;;;;;;;172.30;60.95;;;4.10;99.90;;;;;;5075834;28;20385;-72
2021/03/04 05:54:15;;;;;;;160.30;61.38;;;4.00;99.90;;;;;;5075591;28;20020;-72
2021/03/04 05:56:43;;;;;;;165.57;60.60;;;4.10;99.90;;;;;;5076610;28;20132;-73
2021/03/04 05:59:09;;;;;;;158.82;59.90;;;4.20;99.90;;;;;;5076942;28;20051;-71
2021/03/04 06:01:35;;;;;;;164.85;61.10;;;4.20;99.90;;;;;;5076449;28;20036;-72
2021/03/04 06:04:00;;;;;;;164.65;60.45;;;4.20;99.90;;;;;;5076558;28;20031;-72
2021/03/04 06:06:26;;;;;;;164.93;60.65;;;4.20;99.90;;;;;;5075864;28;20027;-71
2021/03/04 06:08:52;;;;;;;164.15;60.63;;;4.10;99.90;;;;;;5076991;28;20027;-71
2021/03/04 06:11:17;;;;;;;179.38;62.83;;;4.10;99.90;;;;;;5076962;28;20350;-71
2021/03/04 06:13:43;;;;;;;189.85;63.53;;;4.20;99.90;;;;;;5076607;28;20020;-72
2021/03/04 06:16:08;;;;;;;181.20;61.50;;;4.10;99.90;;;;;;5076709;28;20039;-71
2021/03/04 06:18:43;;;;;;;171.90;63.58;;;4.10;99.90;;;;;;5076542;28;20473;-71
2021/03/04 06:21:22;;;;;;;203.45;67.82;;;4.10;99.90;;;;;;5076194;28;20021;-72
2021/03/04 06:23:48;;;;;;;216.85;67.38;;;4.00;99.90;;;;;;5076705;28;20020;-71
2021/03/04 06:29:24;;;;;;;280.13;73.90;;;4.00;99.90;;;;;;5112234;27;20343;-72
2021/03/04 06:32:06;;;;;;;317.15;77.05;;;3.90;99.90;;;;;;5111711;28;20020;-71
2021/03/04 06:34:32;;;;;;;251.38;75.28;;;3.90;99.90;;;;;;5110349;28;20115;-71
2021/03/04 06:37:00;;;;;;;241.23;75.13;;;4.00;99.90;;;;;;5111626;28;20028;-72
2021/03/04 06:39:38;;;;;;;270.83;78.35;;;4.10;99.90;;;;;;5109997;28;20019;-72
2021/03/04 06:42:05;;;;;;;268.27;76.18;;;4.10;99.90;;;;;;5110663;28;20069;-72
2021/03/04 06:44:43;;;;;;;270.13;76.68;;;4.10;99.90;;;;;;5111740;28;20117;-72
2021/03/04 06:47:09;;;;;;;335.92;76.53;;;4.10;99.90;;;;;;5111029;28;20047;-72
2021/03/04 06:49:38;;;;;;;301.40;77.55;;;4.10;99.90;;;;;;5111679;28;20024;-73
2021/03/04 06:52:04;;;;;;;382.77;78.53;;;4.10;99.90;;;;;;5111578;28;20055;-72
2021/03/04 06:54:30;;;;;;;360.70;78.38;;;4.10;99.90;;;;;;5111461;28;20023;-72
2021/03/04 06:56:55;;;;;;;402.48;81.95;;;4.00;99.90;;;;;;5109973;28;20031;-72
2021/03/04 06:59:21;;;;;;;504.65;85.28;;;4.00;99.90;;;;;;5111237;28;20023;-72
2021/03/04 07:01:46;;;;;;;373.92;81.57;;;4.00;99.90;;;;;;5109273;28;20080;-72
2021/03/04 07:04:15;;;;;;;467.50;86.72;;;3.90;99.90;;;;;;5110082;28;20024;-72
2021/03/04 07:06:45;;;;;;;378.20;80.38;;;4.00;99.90;;;;;;5110505;28;20026;-72
2021/03/04 07:09:12;;;;;;;311.00;77.72;;;4.10;99.90;;;;;;5110763;28;20023;-72
2021/03/04 07:11:38;;;;;;;304.52;76.32;;;4.10;99.90;;;;;;5109987;28;20453;-72
2021/03/04 07:14:06;;;;;;;343.88;77.15;;;4.10;99.90;;;;;;5111053;28;20050;-71
2021/03/04 07:16:37;;;;;;;391.90;83.43;;;4.10;99.90;;;;;;5109521;28;20020;-72
2021/03/04 07:19:04;;;;;;;407.63;83.57;;;4.10;99.90;;;;;;5110708;28;20016;-72
2021/03/04 07:21:38;;;;;;;447.33;86.13;;;3.90;99.90;;;;;;5110634;28;20020;-72
2021/03/04 07:24:05;;;;;;;406.52;87.32;;;4.00;99.90;;;;;;5109364;28;20077;-72
2021/03/04 07:26:31;;;;;;;362.98;85.05;;;4.10;99.90;;;;;;5110642;28;20046;-72
2021/03/04 07:28:57;;;;;;;356.05;82.63;;;4.20;99.90;;;;;;5109998;28;20066;-72
2021/03/04 07:31:22;;;;;;;286.83;75.65;;;4.30;99.90;;;;;;5110177;28;20465;-72
2021/03/04 07:33:50;;;;;;;304.90;76.78;;;4.20;99.90;;;;;;5110545;28;20028;-72
2021/03/04 07:36:20;;;;;;;336.95;76.35;;;4.20;99.90;;;;;;5108946;28;20012;-72
2021/03/04 07:38:55;;;;;;;268.40;73.85;;;4.20;99.90;;;;;;5106426;28;20019;-72
2021/03/04 07:41:21;;;;;;;295.67;76.28;;;4.30;99.90;;;;;;5096855;28;20028;-72
2021/03/04 07:43:50;;;;;;;303.63;72.85;;;4.40;99.90;;;;;;5096800;28;20019;-72
2021/03/04 07:46:43;;;;;;;297.80;73.10;;;4.50;99.90;;;;;;5095682;28;20035;-72
2021/03/04 07:49:09;;;;;;;274.17;72.78;;;4.50;99.90;;;;;;5096107;28;20071;-71
2021/03/04 07:51:44;;;;;;;258.88;68.82;;;4.50;99.90;;;;;;5096610;28;20422;-72
2021/03/04 07:54:10;;;;;;;258.58;68.28;;;4.50;99.90;;;;;;5095031;28;20465;-72
2021/03/04 07:56:36;;;;;;;251.63;68.85;;;4.50;99.90;;;;;;5094925;28;20058;-72
2021/03/04 07:59:13;;;;;;;255.25;65.38;;;4.60;99.90;;;;;;5090703;28;20059;-72
2021/03/04 08:01:42;;;;;;;214.07;60.88;;;4.60;99.90;;;;;;5092812;28;20032;-72
2021/03/04 08:04:20;;;;;;;230.65;64.15;;;4.60;99.90;;;;;;5093520;28;20042;-72
2021/03/04 08:06:47;;;;;;;219.32;64.28;;;4.40;99.90;;;;;;5094599;28;20028;-72
2021/03/04 08:09:24;;;;;;;208.95;62.13;;;4.40;99.90;;;;;;5095276;28;20074;-72
2021/03/04 08:11:51;;;;;;;194.73;57.60;;;4.40;99.90;;;;;;5094990;28;20436;-72
2021/03/04 08:14:16;;;;;;;203.13;58.17;;;4.40;99.90;;;;;;5093289;28;20020;-72
2021/03/04 08:16:42;;;;;;;202.68;59.38;;;4.40;99.90;;;;;;5094579;28;20099;-72
2021/03/04 08:19:08;;;;;;;205.25;58.30;;;4.40;99.90;;;;;;5094777;28;20473;-72
2021/03/04 08:21:39;;;;;;;203.02;59.10;;;4.40;99.90;;;;;;5092639;28;20043;-72
2021/03/04 08:24:05;;;;;;;207.90;61.60;;;4.40;99.90;;;;;;5094276;28;20032;-72
2021/03/04 08:26:36;;;;;;;212.80;58.42;;;4.40;99.90;;;;;;5094209;28;20490;-72
2021/03/04 08:29:11;;;;;;;200.38;60.25;;;4.40;99.90;;;;;;5087067;28;20075;-72
2021/03/04 08:31:45;;;;;;;193.20;56.33;;;4.40;99.90;;;;;;5093069;28;20073;-72
2021/03/04 08:34:10;;;;;;;191.95;55.33;;;4.30;99.90;;;;;;5095080;28;20016;-72
2021/03/04 08:36:40;;;;;;;189.18;56.60;;;4.30;99.90;;;;;;5094692;28;20028;-72
2021/03/04 08:39:06;;;;;;;189.65;57.60;;;4.40;99.90;;;;;;5094868;28;20021;-72
2021/03/04 08:41:31;;;;;;;202.82;59.20;;;4.30;99.90;;;;;;5094555;28;20034;-72
2021/03/04 08:44:08;;;;;;;207.13;60.92;;;4.30;99.90;;;;;;5093721;28;20024;-72
2021/03/04 08:46:34;;;;;;;191.02;57.20;;;4.30;99.90;;;;;;5094188;28;20020;-72
2021/03/04 08:48:59;;;;;;;193.80;57.20;;;4.30;99.90;;;;;;5088527;28;20512;-72
2021/03/04 08:51:26;;;;;;;195.02;55.25;;;4.40;99.90;;;;;;5084162;28;20380;-72
2021/03/04 08:53:51;;;;;;;189.73;56.90;;;4.40;99.90;;;;;;5094499;28;20023;-72
2021/03/04 08:56:17;;;;;;;175.00;52.80;;;4.40;99.90;;;;;;5093136;28;20103;-72
2021/03/04 08:58:43;;;;;;;178.63;53.03;;;4.40;99.90;;;;;;5094713;28;20039;-72
2021/03/04 09:01:10;;;;;;;170.80;50.55;;;4.40;99.90;;;;;;5093682;28;20024;-72
2021/03/04 09:03:41;;;;;;;173.13;51.22;;;4.40;99.90;;;;;;5094452;28;20169;-72
2021/03/04 09:06:10;;;;;;;164.82;50.67;;;4.40;99.90;;;;;;5094213;28;20115;-72
2021/03/04 09:08:38;;;;;;;171.13;49.47;;;4.50;99.90;;;;;;5094453;28;20457;-72
2021/03/04 09:11:06;;;;;;;176.95;48.97;;;4.40;99.90;;;;;;5082894;28;20035;-72
2021/03/04 09:13:33;;;;;;;151.82;46.25;;;4.40;99.90;;;;;;5073794;28;20020;-72
2021/03/04 09:16:08;;;;;;;159.75;46.25;;;4.40;99.90;;;;;;5086166;28;20062;-73
2021/03/04 09:18:42;;;;;;;136.00;42.63;;;4.50;99.90;;;;;;5093609;28;20074;-72
2021/03/04 09:21:11;;;;;;;134.07;41.97;;;4.50;99.90;;;;;;5092686;28;20035;-73
2021/03/04 09:23:37;;;;;;;134.95;41.92;;;4.50;99.90;;;;;;5093795;28;20526;-72
2021/03/04 09:26:03;;;;;;;125.20;40.45;;;4.40;99.90;;;;;;5094125;28;20035;-72
2021/03/04 09:28:30;;;;;;;134.20;41.38;;;4.50;99.90;;;;;;5093852;28;20043;-72
2021/03/04 09:30:56;;;;;;;118.25;39.33;;;4.50;99.90;;;;;;5093898;28;20020;-72
2021/03/04 09:33:23;;;;;;;112.00;37.22;;;4.60;99.90;;;;;;5093666;28;20030;-72
2021/03/04 09:36:05;;;;;;;115.90;36.97;;;4.50;99.90;;;;;;5093760;28;20051;-73
2021/03/04 09:38:33;;;;;;;120.55;36.47;;;4.50;99.90;;;;;;5093656;28;20417;-72
2021/03/04 09:41:16;;;;;;;107.22;33.70;;;4.50;99.90;;;;;;5093360;28;20400;-72
2021/03/04 09:43:44;;;;;;;92.18;31.77;;;4.60;99.90;;;;;;5093794;28;20477;-72
2021/03/04 09:46:10;;;;;;;93.78;32.72;;;4.60;99.90;;;;;;5075601;28;20431;-71
2021/03/04 09:48:38;;;;;;;91.57;31.92;;;4.70;99.90;;;;;;5093838;28;20020;-73
2021/03/04 09:51:04;;;;;;;109.07;33.75;;;4.70;99.90;;;;;;5093354;28;20024;-72
2021/03/04 09:53:30;;;;;;;104.65;32.25;;;4.50;99.90;;;;;;5093005;28;20065;-72
2021/03/04 09:55:56;;;;;;;112.25;33.40;;;4.50;99.90;;;;;;5094108;28;20027;-72
2021/03/04 09:58:24;;;;;;;114.70;34.35;;;4.40;99.90;;;;;;5091721;28;20370;-72
2021/03/04 10:00:58;;;;;;;113.13;31.52;;;4.30;99.90;;;;;;5090880;28;20028;-72
2021/03/04 10:03:41;;;;;;;106.80;32.08;;;4.30;99.90;;;;;;5093008;28;20030;-72
2021/03/04 10:06:19;;;;;;;111.07;32.03;;;4.30;99.90;;;;;;5092902;28;20052;-72
2021/03/04 10:08:45;;;;;;;112.88;35.53;;;4.30;99.90;;;;;;5093149;28;20032;-72
2021/03/04 10:11:22;;;;;;;121.72;32.70;;;4.30;99.90;;;;;;5092176;28;20023;-72
2021/03/04 10:13:47;;;;;;;122.82;32.95;;;4.20;99.90;;;;;;5093158;28;20390;-73
2021/03/04 10:16:13;;;;;;;113.88;34.15;;;4.30;99.90;;;;;;5092983;28;20047;-73
2021/03/04 10:18:43;;;;;;;120.38;33.90;;;4.30;99.90;;;;;;5092787;28;20497;-73
2021/03/04 10:21:10;;;;;;;106.25;31.85;;;4.30;99.90;;;;;;5093293;28;20035;-73
2021/03/04 10:23:35;;;;;;;113.07;34.47;;;4.30;99.90;;;;;;5091476;28;20453;-73
2021/03/04 10:26:01;;;;;;;116.38;34.20;;;4.20;99.90;;;;;;5091934;28;20107;-73
2021/03/04 10:28:26;;;;;;;118.97;34.10;;;4.20;99.90;;;;;;5092341;28;20128;-72
2021/03/04 10:30:52;;;;;;;125.53;34.03;;;4.30;99.90;;;;;;5092870;28;20028;-72
2021/03/04 10:33:18;;;;;;;124.75;35.58;;;4.20;99.90;;;;;;5093030;28;20479;-72
2021/03/04 10:35:43;;;;;;;133.77;35.35;;;4.10;99.90;;;;;;5092991;28;20020;-72
2021/03/04 10:38:09;;;;;;;132.65;35.35;;;4.00;99.90;;;;;;5093009;28;20042;-72
2021/03/04 10:40:34;;;;;;;145.63;35.78;;;4.00;99.90;;;;;;5092459;28;20020;-72
2021/03/04 10:43:01;;;;;;;133.07;34.78;;;4.10;99.90;;;;;;5093001;28;20085;-72
2021/03/04 10:45:26;;;;;;;120.75;35.97;;;4.10;99.90;;;;;;5091254;28;20344;-72
2021/03/04 10:47:52;;;;;;;116.93;34.92;;;4.20;99.90;;;;;;5092775;28;20028;-72
2021/03/04 10:50:21;;;;;;;117.78;35.40;;;4.40;99.90;;;;;;5092708;28;20438;-72
2021/03/04 10:52:47;;;;;;;124.47;34.85;;;4.40;99.90;;;;;;5092365;28;20031;-72
2021/03/04 10:55:15;;;;;;;100.82;31.95;;;4.40;99.90;;;;;;5092862;28;20032;-72
2021/03/04 10:57:40;;;;;;;114.72;32.45;;;4.40;99.90;;;;;;5091625;28;20028;-72
2021/03/04 11:00:08;;;;;;;122.85;33.33;;;4.40;99.90;;;;;;5092669;28;20431;-72
2021/03/04 11:02:34;;;;;;;96.35;29.95;;;4.50;99.90;;;;;;5092863;28;20028;-72
2021/03/04 11:05:00;;;;;;;90.03;27.55;;;4.40;99.90;;;;;;5092034;28;20034;-71
2021/03/04 11:07:25;;;;;;;72.65;24.15;;;4.50;99.90;;;;;;5092209;28;20039;-71
2021/03/04 11:09:52;;;;;;;72.40;23.10;;;4.50;99.90;;;;;;5074645;28;20036;-72
2021/03/04 11:12:18;;;;;;;74.50;23.27;;;4.50;99.90;;;;;;5091074;28;20031;-71
2021/03/04 11:14:44;;;;;;;69.18;23.95;;;4.40;99.90;;;;;;5092949;28;20024;-71
2021/03/04 11:17:09;;;;;;;73.38;21.98;;;4.40;99.90;;;;;;5096229;28;20084;-71
2021/03/04 11:19:35;;;;;;;73.75;22.65;;;4.40;99.90;;;;;;5094928;28;20028;-71
2021/03/04 11:22:00;;;;;;;68.43;22.20;;;4.40;99.90;;;;;;5096360;28;20042;-71
2021/03/04 11:24:26;;;;;;;67.13;22.25;;;4.30;99.90;;;;;;5096548;28;20456;-71
2021/03/04 11:26:52;;;;;;;64.43;21.05;;;4.40;99.90;;;;;;5095624;28;20051;-71
2021/03/04 11:29:17;;;;;;;54.45;18.35;;;4.40;99.90;;;;;;5095903;28;20012;-71
2021/03/04 11:31:43;;;;;;;65.07;19.92;;;4.40;99.90;;;;;;5096512;28;20105;-71
2021/03/04 11:34:09;;;;;;;63.13;19.65;;;4.30;99.90;;;;;;5096008;28;20081;-71
2021/03/04 11:36:53;;;;;;;61.53;19.73;;;4.20;99.90;;;;;;5096248;28;20436;-71
2021/03/04 11:39:19;;;;;;;60.67;19.25;;;4.10;99.90;;;;;;5095749;28;20032;-71
2021/03/04 11:41:44;;;;;;;62.75;19.48;;;4.00;99.90;;;;;;5095457;28;20077;-72
2021/03/04 11:44:11;;;;;;;57.05;17.02;;;4.10;99.90;;;;;;5095473;28;20028;-73
2021/03/04 11:46:36;;;;;;;48.13;15.73;;;4.10;99.90;;;;;;5095643;28;20070;-71
2021/03/04 11:49:02;;;;;;;43.20;15.57;;;4.20;99.90;;;;;;5095950;28;20032;-70
2021/03/04 11:51:28;;;;;;;41.85;13.40;;;4.10;99.90;;;;;;5095734;28;20031;-71
2021/03/04 11:53:53;;;;;;;37.75;13.77;;;4.10;99.90;;;;;;5094504;28;20016;-73
2021/03/04 11:56:19;;;;;;;40.90;13.95;;;4.10;99.90;;;;;;5094288;28;20031;-71
2021/03/04 11:58:45;;;;;;;38.47;13.68;;;4.00;99.90;;;;;;5094749;28;20027;-71
2021/03/04 12:01:10;;;;;;;50.60;17.42;;;4.10;99.90;;;;;;5093177;28;20035;-71
2021/03/04 12:03:48;;;;;;;38.08;14.70;;;4.10;99.90;;;;;;5095185;28;20070;-72
2021/03/04 12:06:14;;;;;;;40.60;14.88;;;4.10;99.90;;;;;;5095329;28;20111;-72
2021/03/04 12:08:42;;;;;;;51.80;16.17;;;4.20;99.90;;;;;;5094920;28;20111;-72
2021/03/04 12:11:08;;;;;;;45.97;15.55;;;4.20;99.90;;;;;;5093496;28;20032;-73
2021/03/04 12:13:34;;;;;;;44.70;15.10;;;4.30;99.90;;;;;;5093814;28;20542;-73
2021/03/04 12:16:03;;;;;;;47.28;16.13;;;4.50;99.90;;;;;;5094115;28;20028;-73
2021/03/04 12:18:29;;;;;;;49.53;16.85;;;4.50;99.90;;;;;;5093919;28;20407;-73
2021/03/04 12:20:54;;;;;;;40.63;16.08;;;4.40;99.90;;;;;;5094832;28;20121;-73
2021/03/04 12:23:21;;;;;;;53.97;19.27;;;4.50;99.90;;;;;;5094910;28;20485;-73
2021/03/04 12:25:46;;;;;;;55.25;18.63;;;4.50;99.90;;;;;;5094417;28;20492;-73
2021/03/04 12:28:12;;;;;;;62.80;19.17;;;4.30;99.90;;;;;;5093032;28;20051;-72
2021/03/04 12:30:38;;;;;;;61.30;19.83;;;4.40;99.90;;;;;;5094306;28;20020;-72
2021/03/04 12:33:03;;;;;;;67.03;20.77;;;4.40;99.90;;;;;;5094296;28;20423;-72